Fougeres (35) - B bis

Date : 29/10/2012

Place Nom Licence Catégorie Club Temps CN à J-60 Points Différence Nouveau CN
1 MORLON Marie 2100 D45 5702LO 0:20:03 5836 5223 -613 5781
2 PICAZO Sophie 17789 D45 8405PR 0:20:14 5129 5176 +47 5016
3 CAMPBELL Jane 17406 D55 7807IF 0:21:24 4359 4893 +534 4359
4 GUINOT Véronique 15015 D50 2108BO 0:21:30 4812 4871 +59 5140
5 LEVESY Marie-pierre 20490 D45 3810RA 0:21:48 4191 4804 +613 4298
6 OLIGO Virginie 9192 D45 5604BR 0:22:27 4799 4665 -134 4762
7 KORCHAK Lena 13637 D50 6806AL 0:22:56 4771 4566 -205 4779
8 ROUX Marie Françoise 25236 D50 4201RA 0:23:18 3832 4494 +662 3900
9 REMOUET Marie-Pierre 2782 D45 8311AZ 0:23:39 4657 4428 -229 4580
10 MARCHESIN Sylvie 1487 D50 5702LO 0:24:00 5077 4363 -714 4886
11 PELLETIER Genevieve 10502 D45 6911RA 0:24:03 4725 4354 -371 4673
12 PETIT Guyonne 4372 D55 7808IF 0:24:13 4423 4324 -99 4448
13 LOTERIE Murielle 7044 D45 5907NO 0:24:34 3143 4263 +1120 3511
14 RORA Isabelle 7703 D45 7719IF 0:25:19 3727 4136 +409 3788
15 MARTIN Sylvie 22292 D45 3308AQ 0:25:24 3567 4123 +556 3740
16 GIRE Camille 886 D45 7707IF 0:25:31 4399 4104 -295 4347
17 BLUM Virginie 12646 D50 5116CA 0:25:42 4231 4075 -156 4138
18 KASTENSSON Lotta 22993 D45 0615AZ 0:25:46 3691 4064 +373 3714
19 MARTIN Pascale 23568 D50 7512IF 0:25:54 4494 4043 -451 4471
20 LAPEYRE Frederique 17633 D45 1905LI 0:26:17 4278 3984 -294 4343
21 BONNET Christine 2400 D55 5402LO 0:26:18 4903 3982 -921 4829
22 ANGLADE Françoise 22255 D45 5604BR 0:26:21 3464 3974 +510 3581
23 GUINOT Joelle 18977 D45 1905LI 0:26:33 3556 3944 +388 3556
24 RAUTURIER Nathalie 3200 D45 7807IF 0:26:49 3921 3905 -16 3939
25 DIEUDONNE Madeleine 1380 D65 7808IF 0:26:50 3850 3903 +53 3937
26 PERE Catherine 2730 D50 2105BO 0:26:56 4133 3888 -245 4133
27 EUDIER Agnès 13233 D50 2704NM 0:26:58 4017 3883 -134 4001
28 OBSTETAR Anne 12771 D45 5703LO 0:26:59 4958 3881 -1077 4958
29 BOCQUET Pascale 12715 D50 4010AQ 0:27:05 3682 3867 +185 3682
30 FIGUIERE Valérie 274 D45 7109BO 0:27:33 4270 3801 -469 4253
31 CORDEIRO MENDES Myriam 9235 D50 6008PI 0:27:42 3683 3780 +97 3659
32 PIERSON Blandine 19003 D45 9109IF 0:27:53 3686 3756 +70 3732
33 BONNEAU Catherine 3354 D45 7719IF 0:28:05 3798 3729 -69 3840
34 GILLET Annabelle 19601 D45 5116CA 0:28:50 3662 3632 -30 3711
35 CHABANCE Anne 20752 D45 4201RA 0:29:04 2840 3603 +763 2805
36 VILLEDIEU Martine 13752 D55 6913RA 0:29:13 3583 3584 +1 3609
37 RAVENEL Veronique 10902 D45 6804AL 0:29:23 3170 3564 +394 3154
38 RICHARD Nicole 14245 D60 0207PI 0:29:48 3374 3514 +140 3402
39 DUCHENE Edith 2481 D50 8807LO 0:29:54 3452 3502 +50 3501
40 BERGER M-Jose 7182 D60 5703LO 0:30:01 3892 3489 -403 3812
41 DOUSSET Corinne 20729 D45 4709AQ 0:30:01 3777 3489 -288 3784
42 SIMON Anne 14099 D45 2605RA 0:30:19 0 3454 2964
43 MOISSET Nicole 2329 D55 7403RA 0:30:32 3362 3430 +68 3436
44 RINGOT Veronique 12356 D45 6913RA 0:30:36 2698 3422 +724 2698
45 BOULANGER Isabelle 10639 D55 5907NO 0:30:48 3291 3400 +109 3362
46 GRAIN Nathalie 24640 D45 2704NM 0:31:52 2188 3286 +1098 2408
47 LEBLOIS Delphine 22825 D45 7716IF 0:32:37 3211 0
48 DASILVA Irene 878 D45 7707IF 0:33:23 3087 3137 +50 3132
49 FOUCHER Marie 23997 D45 7716IF 0:33:34 3120 0
50 SPILKA Natacha 12443 D45 1403NM 0:33:37 3376 3115 -261 3376
51 HARDEL Elisabeth 8998 D60 1403NM 0:33:42 2206 3107 +901 2503
52 GOLMARD Chantal 2668 D55 2101BO 0:33:47 2938 3100 +162 3106
53 GREVET Claudie 15296 D50 6806AL 0:34:33 2930 3031 +101 2983
54 HAURY Evelyne 13692 D45 6806AL 0:34:46 4320 3012 -1308 4324
55 CLET Arlette 3195 D45 7709IF 0:35:56 4182 2914 -1268 3960
56 CHAUVINEAU Christine 15228 D45 7807IF 0:36:19 3069 2883 -186 3105
57 BODY Agnes 10182 D45 7305RA 0:37:01 3143 2829 -314 3181
58 BERION Marie-Josephe 23056 D55 2508FC 0:37:27 2082 2796 +714 2413
59 SERRE Francine 3429 D45 5907NO 0:37:52 1733 2765 +1032 1969
60 LIJOUR Lydie 23781 D45 7716IF 0:38:11 0 2743 0
61 BERGEGERE Sandrine 23654 D45 8405PR 0:38:20 2382 2732 +350 2447
62 BRUNEL Marie-Jo 8761 D60 8903BO 0:38:47 3473 2700 -773 3345
63 VILLAME Uli 22384 D45 7719IF 0:39:04 3155 2681 -474 3185
64 VANOVERBERGHE Nathalie 22237 D45 6208NO 0:39:08 2809 2676 -133 2815
65 MONTANARI Colette 2533 D60 5703LO 0:39:10 3527 2674 -853 3527
66 PICARD Pascale 23216 D45 2704NM 0:41:22 2331 2531 +200 2475
67 RAULT Monique 17265 D55 1103LR 0:42:17 2892 2477 -415 2915
68 GERBEAUX Marie-jeanne 22417 D55 6205NO 0:43:45 3287 2394 -893 3460
69 CALANDOT Michelle 2927 D55 1403NM 0:45:03 2784 2324 -460 2784
70 KIEFFER Mireille 2680 D65 2101BO 0:45:16 2636 2313 -323 2636
71 LAMINETTE M-Odile 17201 D50 5907NO 0:46:08 2601 2270 -331 2706
72 VERDIN Christine 15274 D50 7109BO 0:46:53 2610 2234 -376 2610
73 GUILLEMER Catherine 23390 D50 2208BR 0:50:19 1580 2081 +501 1810
74 ALLANCON Claudine 14632 D60 2906BR 0:52:05 1980 2011 +31 1948
75 LUDEWIG-JAMES Carol 15894 D70 5907NO 0:53:33 2136 1956 -180 2181
76 THIEBAUT Evelyne 16129 D55 5702LO 1:06:12 3337 1582 -1755 3115
77 QUEYROI Yvette 14021 D50 3308AQ 1:08:56 1993 1519 -474 1993
BOUCHE Sylvie 7520 D50 9105IF pm 3395 0 3472
MOISSERON Claire 19996 D45 1403NM pm 3113 0 2903
DUPOIRIEUX Sophie 10496 D50 8807LO pm 4025 0 3963
LABEUR Roselyne 905 D60 7707IF pm 3836 0 3836
PEYCLIT Christine 19825 D45 1905LI pm 2028 0 2117
BASTIEN-FATH Nicole 8954 D65 5402LO pm 2352 0 2393